Hebbronville, Texas
Current Conditions -  °F | °C
As of 10:15 AM on Monday 26 Jan 2015 (Local Time) from KHBV Reporting Station
Clear Clear  
Wind Chill: 67°   Ceiling: Unl
Heat Index: 67°   Visibility: 10mi
Dew Point: 33°   Wind: 0mph
Humidity: 28%   Direction: NA
Pressure: 30.32"   Gusts: NA
Location:  27.31°N, 98.68°W
Report Text: KHBV 261615Z AUTO 00000KT 10SM CLR 20/00 A3032 RMK AO2 T01950004 PWINO
Loading
Personal Weather Stations






























Interactive Weather Map New forecast layout! Learn more

10-Day Weather Forecast

Advertisements
Track Severe Weather on mobile